sensor_id;sensor_type;location;lat;lon;timestamp;P1;durP1;ratioP1;P2;durP2;ratioP2
23474;SDS011;11910;52.086;21.066;2024-03-23T00:54:42;37.92;;;25.95;;
23474;SDS011;11910;52.086;21.066;2024-03-23T00:57:07;40.42;;;26.27;;
23474;SDS011;11910;52.086;21.066;2024-03-23T00:59:33;37.22;;;26.05;;
23474;SDS011;11910;52.086;21.066;2024-03-23T01:01:59;41.78;;;27.98;;
23474;SDS011;11910;52.086;21.066;2024-03-23T01:04:24;42.00;;;27.88;;
23474;SDS011;11910;52.086;21.066;2024-03-23T01:06:50;40.92;;;26.05;;
23474;SDS011;11910;52.086;21.066;2024-03-23T01:09:16;42.30;;;26.95;;
23474;SDS011;11910;52.086;21.066;2024-03-23T01:11:41;40.20;;;27.33;;
23474;SDS011;11910;52.086;21.066;2024-03-23T01:14:07;39.00;;;26.33;;
23474;SDS011;11910;52.086;21.066;2024-03-23T01:16:33;38.17;;;27.33;;
23474;SDS011;11910;52.086;21.066;2024-03-23T01:18:58;43.05;;;26.73;;
23474;SDS011;11910;52.086;21.066;2024-03-23T01:21:24;38.63;;;26.85;;
23474;SDS011;11910;52.086;21.066;2024-03-23T01:23:50;42.35;;;26.92;;
23474;SDS011;11910;52.086;21.066;2024-03-23T01:26:16;42.60;;;27.40;;
23474;SDS011;11910;52.086;21.066;2024-03-23T01:28:41;46.78;;;27.38;;
23474;SDS011;11910;52.086;21.066;2024-03-23T01:31:07;48.95;;;28.33;;
23474;SDS011;11910;52.086;21.066;2024-03-23T01:33:32;51.10;;;29.77;;
23474;SDS011;11910;52.086;21.066;2024-03-23T01:35:58;45.88;;;28.52;;
23474;SDS011;11910;52.086;21.066;2024-03-23T01:38:24;45.17;;;27.85;;
23474;SDS011;11910;52.086;21.066;2024-03-23T01:40:55;43.85;;;27.52;;
23474;SDS011;11910;52.086;21.066;2024-03-23T01:43:22;46.33;;;28.17;;
23474;SDS011;11910;52.086;21.066;2024-03-23T01:45:48;46.10;;;27.20;;
23474;SDS011;11910;52.086;21.066;2024-03-23T01:48:13;48.17;;;28.42;;
23474;SDS011;11910;52.086;21.066;2024-03-23T01:50:39;48.97;;;28.70;;
23474;SDS011;11910;52.086;21.066;2024-03-23T01:53:05;49.58;;;27.38;;
23474;SDS011;11910;52.086;21.066;2024-03-23T01:55:32;45.17;;;27.50;;
23474;SDS011;11910;52.086;21.066;2024-03-23T01:57:58;49.15;;;28.48;;
23474;SDS011;11910;52.086;21.066;2024-03-23T02:00:24;47.30;;;26.77;;
23474;SDS011;11910;52.086;21.066;2024-03-23T02:02:50;42.35;;;26.35;;
23474;SDS011;11910;52.086;21.066;2024-03-23T02:05:16;47.45;;;26.90;;
23474;SDS011;11910;52.086;21.066;2024-03-23T02:07:42;42.35;;;26.67;;
23474;SDS011;11910;52.086;21.066;2024-03-23T02:10:08;42.40;;;26.80;;
23474;SDS011;11910;52.086;21.066;2024-03-23T02:12:35;40.63;;;27.25;;
23474;SDS011;11910;52.086;21.066;2024-03-23T02:15:01;44.22;;;26.92;;
23474;SDS011;11910;52.086;21.066;2024-03-23T02:17:28;46.58;;;27.98;;
23474;SDS011;11910;52.086;21.066;2024-03-23T02:19:55;43.50;;;26.83;;
23474;SDS011;11910;52.086;21.066;2024-03-23T02:22:21;51.60;;;28.70;;
23474;SDS011;11910;52.086;21.066;2024-03-23T02:24:47;43.00;;;27.55;;
23474;SDS011;11910;52.086;21.066;2024-03-23T02:27:12;45.88;;;27.80;;
23474;SDS011;11910;52.086;21.066;2024-03-23T02:29:39;47.83;;;27.80;;
23474;SDS011;11910;52.086;21.066;2024-03-23T02:32:05;49.20;;;28.88;;
23474;SDS011;11910;52.086;21.066;2024-03-23T02:34:31;48.33;;;28.17;;
23474;SDS011;11910;52.086;21.066;2024-03-23T02:36:56;51.63;;;29.70;;
23474;SDS011;11910;52.086;21.066;2024-03-23T02:39:22;50.30;;;29.05;;
23474;SDS011;11910;52.086;21.066;2024-03-23T02:41:48;51.47;;;29.63;;
23474;SDS011;11910;52.086;21.066;2024-03-23T02:44:14;58.65;;;30.00;;
23474;SDS011;11910;52.086;21.066;2024-03-23T02:46:39;48.30;;;29.30;;
23474;SDS011;11910;52.086;21.066;2024-03-23T02:49:06;56.13;;;32.42;;
23474;SDS011;11910;52.086;21.066;2024-03-23T02:51:32;49.80;;;30.38;;
23474;SDS011;11910;52.086;21.066;2024-03-23T02:53:58;52.03;;;30.25;;
23474;SDS011;11910;52.086;21.066;2024-03-23T02:56:24;46.60;;;28.63;;
23474;SDS011;11910;52.086;21.066;2024-03-23T02:58:49;59.22;;;31.77;;
23474;SDS011;11910;52.086;21.066;2024-03-23T03:01:15;50.10;;;30.00;;
23474;SDS011;11910;52.086;21.066;2024-03-23T03:03:41;48.58;;;29.73;;
23474;SDS011;11910;52.086;21.066;2024-03-23T03:06:06;61.05;;;33.35;;
23474;SDS011;11910;52.086;21.066;2024-03-23T03:08:32;57.65;;;31.85;;
23474;SDS011;11910;52.086;21.066;2024-03-23T03:10:58;56.28;;;32.30;;
23474;SDS011;11910;52.086;21.066;2024-03-23T03:13:23;55.75;;;31.95;;
23474;SDS011;11910;52.086;21.066;2024-03-23T03:15:49;70.55;;;34.83;;
23474;SDS011;11910;52.086;21.066;2024-03-23T03:18:15;67.30;;;34.10;;
23474;SDS011;11910;52.086;21.066;2024-03-23T03:20:40;54.95;;;32.70;;
23474;SDS011;11910;52.086;21.066;2024-03-23T03:23:06;55.45;;;32.60;;
23474;SDS011;11910;52.086;21.066;2024-03-23T03:25:32;65.07;;;34.95;;
23474;SDS011;11910;52.086;21.066;2024-03-23T03:27:59;55.22;;;31.88;;
23474;SDS011;11910;52.086;21.066;2024-03-23T03:30:25;71.50;;;35.13;;
23474;SDS011;11910;52.086;21.066;2024-03-23T03:32:52;69.63;;;35.83;;
23474;SDS011;11910;52.086;21.066;2024-03-23T03:35:18;75.93;;;36.08;;
23474;SDS011;11910;52.086;21.066;2024-03-23T03:37:44;61.65;;;33.28;;
23474;SDS011;11910;52.086;21.066;2024-03-23T03:40:10;74.15;;;36.65;;
23474;SDS011;11910;52.086;21.066;2024-03-23T03:42:37;59.75;;;33.50;;
23474;SDS011;11910;52.086;21.066;2024-03-23T03:45:03;67.78;;;35.35;;
23474;SDS011;11910;52.086;21.066;2024-03-23T03:47:29;60.63;;;34.10;;
23474;SDS011;11910;52.086;21.066;2024-03-23T03:49:55;67.72;;;35.47;;
23474;SDS011;11910;52.086;21.066;2024-03-23T03:52:21;58.28;;;31.90;;
23474;SDS011;11910;52.086;21.066;2024-03-23T03:54:46;60.38;;;33.88;;
23474;SDS011;11910;52.086;21.066;2024-03-23T03:57:12;54.80;;;32.17;;
23474;SDS011;11910;52.086;21.066;2024-03-23T03:59:38;52.33;;;32.00;;
23474;SDS011;11910;52.086;21.066;2024-03-23T04:02:03;58.40;;;33.15;;
23474;SDS011;11910;52.086;21.066;2024-03-23T04:04:30;55.58;;;33.17;;
23474;SDS011;11910;52.086;21.066;2024-03-23T04:07:01;58.50;;;33.42;;
23474;SDS011;11910;52.086;21.066;2024-03-23T04:11:53;63.38;;;34.38;;
23474;SDS011;11910;52.086;21.066;2024-03-23T04:14:19;69.07;;;35.53;;
23474;SDS011;11910;52.086;21.066;2024-03-23T04:16:44;61.85;;;33.67;;
23474;SDS011;11910;52.086;21.066;2024-03-23T04:19:10;66.78;;;35.38;;
23474;SDS011;11910;52.086;21.066;2024-03-23T04:21:37;74.97;;;36.88;;
23474;SDS011;11910;52.086;21.066;2024-03-23T04:24:03;61.03;;;35.35;;
23474;SDS011;11910;52.086;21.066;2024-03-23T04:26:29;72.35;;;37.25;;
23474;SDS011;11910;52.086;21.066;2024-03-23T04:28:55;66.43;;;35.40;;
23474;SDS011;11910;52.086;21.066;2024-03-23T04:31:20;71.50;;;36.65;;
23474;SDS011;11910;52.086;21.066;2024-03-23T04:33:46;65.25;;;35.78;;
23474;SDS011;11910;52.086;21.066;2024-03-23T04:36:12;70.53;;;35.95;;
23474;SDS011;11910;52.086;21.066;2024-03-23T04:38:38;70.13;;;36.80;;
23474;SDS011;11910;52.086;21.066;2024-03-23T04:41:04;69.93;;;35.90;;
23474;SDS011;11910;52.086;21.066;2024-03-23T04:43:29;61.78;;;35.10;;
23474;SDS011;11910;52.086;21.066;2024-03-23T04:45:55;64.80;;;35.65;;
23474;SDS011;11910;52.086;21.066;2024-03-23T04:48:21;77.47;;;37.40;;
23474;SDS011;11910;52.086;21.066;2024-03-23T04:50:54;74.22;;;36.35;;
23474;SDS011;11910;52.086;21.066;2024-03-23T04:53:22;73.38;;;37.08;;
23474;SDS011;11910;52.086;21.066;2024-03-23T04:55:53;70.18;;;37.03;;
23474;SDS011;11910;52.086;21.066;2024-03-23T04:58:24;86.32;;;39.20;;
23474;SDS011;11910;52.086;21.066;2024-03-23T05:00:56;70.28;;;36.67;;
23474;SDS011;11910;52.086;21.066;2024-03-23T05:03:22;62.50;;;33.20;;
23474;SDS011;11910;52.086;21.066;2024-03-23T05:05:49;69.25;;;36.25;;
23474;SDS011;11910;52.086;21.066;2024-03-23T05:08:15;71.63;;;36.25;;
23474;SDS011;11910;52.086;21.066;2024-03-23T05:10:44;63.78;;;36.00;;
23474;SDS011;11910;52.086;21.066;2024-03-23T05:13:11;77.32;;;38.35;;
23474;SDS011;11910;52.086;21.066;2024-03-23T05:15:37;56.13;;;33.28;;
23474;SDS011;11910;52.086;21.066;2024-03-23T05:18:03;67.05;;;35.20;;
23474;SDS011;11910;52.086;21.066;2024-03-23T05:20:30;64.78;;;34.72;;
23474;SDS011;11910;52.086;21.066;2024-03-23T05:22:56;58.67;;;33.90;;
23474;SDS011;11910;52.086;21.066;2024-03-23T05:25:22;61.80;;;34.63;;
23474;SDS011;11910;52.086;21.066;2024-03-23T05:27:47;61.28;;;34.72;;
23474;SDS011;11910;52.086;21.066;2024-03-23T05:30:13;63.75;;;34.72;;
23474;SDS011;11910;52.086;21.066;2024-03-23T05:32:39;68.30;;;36.55;;
23474;SDS011;11910;52.086;21.066;2024-03-23T05:35:07;65.78;;;35.90;;
23474;SDS011;11910;52.086;21.066;2024-03-23T05:37:34;59.35;;;34.33;;
23474;SDS011;11910;52.086;21.066;2024-03-23T05:40:00;67.13;;;36.22;;
23474;SDS011;11910;52.086;21.066;2024-03-23T05:42:26;59.92;;;34.65;;
23474;SDS011;11910;52.086;21.066;2024-03-23T05:44:52;61.28;;;34.38;;
23474;SDS011;11910;52.086;21.066;2024-03-23T05:47:17;53.75;;;33.47;;
23474;SDS011;11910;52.086;21.066;2024-03-23T05:49:43;58.13;;;33.70;;
23474;SDS011;11910;52.086;21.066;2024-03-23T05:52:11;56.67;;;33.55;;
23474;SDS011;11910;52.086;21.066;2024-03-23T05:54:37;63.38;;;35.42;;
23474;SDS011;11910;52.086;21.066;2024-03-23T05:57:03;68.25;;;35.95;;
23474;SDS011;11910;52.086;21.066;2024-03-23T05:59:28;58.53;;;34.78;;
23474;SDS011;11910;52.086;21.066;2024-03-23T06:01:54;58.13;;;33.88;;
23474;SDS011;11910;52.086;21.066;2024-03-23T06:04:20;65.53;;;36.05;;
23474;SDS011;11910;52.086;21.066;2024-03-23T06:06:48;58.50;;;33.47;;
23474;SDS011;11910;52.086;21.066;2024-03-23T06:09:17;61.90;;;35.58;;
23474;SDS011;11910;52.086;21.066;2024-03-23T06:11:43;58.47;;;33.88;;
23474;SDS011;11910;52.086;21.066;2024-03-23T06:14:08;65.43;;;35.65;;
23474;SDS011;11910;52.086;21.066;2024-03-23T06:16:34;67.55;;;35.58;;
23474;SDS011;11910;52.086;21.066;2024-03-23T06:19:00;61.00;;;33.72;;
23474;SDS011;11910;52.086;21.066;2024-03-23T06:21:28;51.78;;;32.53;;
23474;SDS011;11910;52.086;21.066;2024-03-23T06:23:54;54.72;;;33.65;;
23474;SDS011;11910;52.086;21.066;2024-03-23T06:26:20;60.25;;;34.78;;
23474;SDS011;11910;52.086;21.066;2024-03-23T06:28:49;61.28;;;35.80;;
23474;SDS011;11910;52.086;21.066;2024-03-23T06:31:15;55.45;;;33.75;;
23474;SDS011;11910;52.086;21.066;2024-03-23T06:33:40;54.70;;;33.50;;
23474;SDS011;11910;52.086;21.066;2024-03-23T06:36:09;58.42;;;34.85;;
23474;SDS011;11910;52.086;21.066;2024-03-23T06:38:35;59.38;;;35.33;;
23474;SDS011;11910;52.086;21.066;2024-03-23T06:41:05;64.95;;;36.50;;
23474;SDS011;11910;52.086;21.066;2024-03-23T06:43:30;57.53;;;34.63;;
23474;SDS011;11910;52.086;21.066;2024-03-23T06:45:56;57.83;;;33.20;;
23474;SDS011;11910;52.086;21.066;2024-03-23T06:48:22;56.15;;;34.05;;
23474;SDS011;11910;52.086;21.066;2024-03-23T06:50:48;57.60;;;35.20;;
23474;SDS011;11910;52.086;21.066;2024-03-23T06:53:14;68.65;;;36.53;;
23474;SDS011;11910;52.086;21.066;2024-03-23T06:55:40;58.30;;;34.63;;
23474;SDS011;11910;52.086;21.066;2024-03-23T06:58:06;62.22;;;36.80;;
23474;SDS011;11910;52.086;21.066;2024-03-23T07:00:32;64.30;;;35.22;;
23474;SDS011;11910;52.086;21.066;2024-03-23T07:02:58;65.72;;;37.03;;
23474;SDS011;11910;52.086;21.066;2024-03-23T07:05:24;65.25;;;36.13;;
23474;SDS011;11910;52.086;21.066;2024-03-23T07:07:50;58.55;;;34.92;;
23474;SDS011;11910;52.086;21.066;2024-03-23T07:10:16;65.57;;;37.03;;
23474;SDS011;11910;52.086;21.066;2024-03-23T07:12:42;69.28;;;36.70;;
23474;SDS011;11910;52.086;21.066;2024-03-23T07:15:08;72.00;;;38.20;;
23474;SDS011;11910;52.086;21.066;2024-03-23T07:17:34;68.60;;;36.78;;
23474;SDS011;11910;52.086;21.066;2024-03-23T07:20:00;63.35;;;36.05;;
23474;SDS011;11910;52.086;21.066;2024-03-23T07:22:29;62.60;;;34.40;;
23474;SDS011;11910;52.086;21.066;2024-03-23T07:24:55;59.05;;;35.20;;
23474;SDS011;11910;52.086;21.066;2024-03-23T07:27:21;77.25;;;38.30;;
23474;SDS011;11910;52.086;21.066;2024-03-23T07:29:48;65.15;;;35.95;;
23474;SDS011;11910;52.086;21.066;2024-03-23T07:32:17;66.38;;;37.80;;
23474;SDS011;11910;52.086;21.066;2024-03-23T07:34:43;67.47;;;37.58;;
23474;SDS011;11910;52.086;21.066;2024-03-23T07:37:09;69.15;;;37.08;;
23474;SDS011;11910;52.086;21.066;2024-03-23T07:39:35;57.35;;;33.30;;
23474;SDS011;11910;52.086;21.066;2024-03-23T07:42:01;62.25;;;34.72;;
23474;SDS011;11910;52.086;21.066;2024-03-23T07:44:27;60.85;;;33.28;;
23474;SDS011;11910;52.086;21.066;2024-03-23T07:46:53;63.10;;;32.30;;
23474;SDS011;11910;52.086;21.066;2024-03-23T07:49:19;59.35;;;33.30;;
23474;SDS011;11910;52.086;21.066;2024-03-23T07:51:45;57.47;;;31.95;;
23474;SDS011;11910;52.086;21.066;2024-03-23T07:54:11;56.38;;;32.05;;
23474;SDS011;11910;52.086;21.066;2024-03-23T07:56:36;57.30;;;32.45;;
23474;SDS011;11910;52.086;21.066;2024-03-23T07:59:02;56.85;;;31.75;;
23474;SDS011;11910;52.086;21.066;2024-03-23T08:01:28;61.95;;;31.85;;
23474;SDS011;11910;52.086;21.066;2024-03-23T08:03:55;56.58;;;31.80;;
23474;SDS011;11910;52.086;21.066;2024-03-23T08:06:21;52.90;;;28.15;;
23474;SDS011;11910;52.086;21.066;2024-03-23T08:08:52;54.33;;;30.00;;
23474;SDS011;11910;52.086;21.066;2024-03-23T08:11:31;53.08;;;30.20;;
23474;SDS011;11910;52.086;21.066;2024-03-23T08:14:00;50.22;;;29.75;;
23474;SDS011;11910;52.086;21.066;2024-03-23T08:16:26;50.88;;;28.67;;
23474;SDS011;11910;52.086;21.066;2024-03-23T08:18:53;56.47;;;31.25;;
23474;SDS011;11910;52.086;21.066;2024-03-23T08:21:20;49.75;;;29.60;;
23474;SDS011;11910;52.086;21.066;2024-03-23T08:23:46;49.80;;;29.23;;
23474;SDS011;11910;52.086;21.066;2024-03-23T08:26:13;47.55;;;27.92;;
23474;SDS011;11910;52.086;21.066;2024-03-23T08:28:40;47.85;;;28.45;;
23474;SDS011;11910;52.086;21.066;2024-03-23T08:31:12;49.25;;;27.48;;
23474;SDS011;11910;52.086;21.066;2024-03-23T08:33:39;40.63;;;24.55;;
23474;SDS011;11910;52.086;21.066;2024-03-23T08:36:08;40.28;;;25.42;;
23474;SDS011;11910;52.086;21.066;2024-03-23T08:38:37;37.78;;;23.30;;
23474;SDS011;11910;52.086;21.066;2024-03-23T08:41:04;38.65;;;24.88;;
23474;SDS011;11910;52.086;21.066;2024-03-23T08:43:32;40.65;;;25.35;;
23474;SDS011;11910;52.086;21.066;2024-03-23T08:46:04;34.63;;;22.95;;
23474;SDS011;11910;52.086;21.066;2024-03-23T08:48:30;32.47;;;21.58;;
23474;SDS011;11910;52.086;21.066;2024-03-23T08:53:32;29.45;;;20.35;;
23474;SDS011;11910;52.086;21.066;2024-03-23T08:55:59;26.25;;;18.30;;
23474;SDS011;11910;52.086;21.066;2024-03-23T08:58:26;25.55;;;17.52;;
23474;SDS011;11910;52.086;21.066;2024-03-23T09:00:53;26.85;;;18.00;;
23474;SDS011;11910;52.086;21.066;2024-03-23T09:03:25;24.40;;;17.17;;
23474;SDS011;11910;52.086;21.066;2024-03-23T09:05:51;21.35;;;16.27;;
23474;SDS011;11910;52.086;21.066;2024-03-23T09:08:17;25.33;;;17.08;;
23474;SDS011;11910;52.086;21.066;2024-03-23T09:10:43;24.23;;;16.40;;
23474;SDS011;11910;52.086;21.066;2024-03-23T09:13:10;23.45;;;16.73;;
23474;SDS011;11910;52.086;21.066;2024-03-23T09:15:36;23.33;;;16.15;;
23474;SDS011;11910;52.086;21.066;2024-03-23T09:18:03;23.17;;;16.80;;
23474;SDS011;11910;52.086;21.066;2024-03-23T09:20:32;22.40;;;15.65;;
23474;SDS011;11910;52.086;21.066;2024-03-23T09:22:58;19.95;;;14.13;;
23474;SDS011;11910;52.086;21.066;2024-03-23T09:25:24;21.27;;;14.68;;
23474;SDS011;11910;52.086;21.066;2024-03-23T09:27:50;19.77;;;13.52;;
23474;SDS011;11910;52.086;21.066;2024-03-23T09:30:16;22.20;;;15.32;;
23474;SDS011;11910;52.086;21.066;2024-03-23T09:32:45;18.88;;;12.98;;
23474;SDS011;11910;52.086;21.066;2024-03-23T09:35:10;21.15;;;13.55;;
23474;SDS011;11910;52.086;21.066;2024-03-23T09:37:37;18.45;;;12.98;;
23474;SDS011;11910;52.086;21.066;2024-03-23T09:40:05;16.25;;;13.07;;
23474;SDS011;11910;52.086;21.066;2024-03-23T09:42:34;18.90;;;12.90;;
23474;SDS011;11910;52.086;21.066;2024-03-23T09:45:00;17.05;;;13.50;;
23474;SDS011;11910;52.086;21.066;2024-03-23T09:47:27;15.90;;;12.48;;
23474;SDS011;11910;52.086;21.066;2024-03-23T09:49:53;16.70;;;12.40;;
23474;SDS011;11910;52.086;21.066;2024-03-23T09:52:20;17.98;;;12.52;;
23474;SDS011;11910;52.086;21.066;2024-03-23T09:54:45;17.83;;;12.10;;
23474;SDS011;11910;52.086;21.066;2024-03-23T09:57:11;15.30;;;11.60;;
23474;SDS011;11910;52.086;21.066;2024-03-23T09:59:37;18.63;;;12.90;;
23474;SDS011;11910;52.086;21.066;2024-03-23T10:02:02;18.58;;;12.82;;
23474;SDS011;11910;52.086;21.066;2024-03-23T10:04:39;16.92;;;12.95;;
23474;SDS011;11910;52.086;21.066;2024-03-23T10:09:43;15.70;;;11.38;;
23474;SDS011;11910;52.086;21.066;2024-03-23T10:12:12;17.10;;;12.23;;
23474;SDS011;11910;52.086;21.066;2024-03-23T10:14:42;14.90;;;11.30;;
23474;SDS011;11910;52.086;21.066;2024-03-23T10:17:21;14.93;;;10.95;;
23474;SDS011;11910;52.086;21.066;2024-03-23T10:19:49;14.77;;;10.35;;
23474;SDS011;11910;52.086;21.066;2024-03-23T10:22:20;15.45;;;10.82;;
23474;SDS011;11910;52.086;21.066;2024-03-23T10:24:46;13.57;;;10.05;;
23474;SDS011;11910;52.086;21.066;2024-03-23T10:27:19;15.00;;;9.57;;
23474;SDS011;11910;52.086;21.066;2024-03-23T10:29:46;15.48;;;11.00;;
23474;SDS011;11910;52.086;21.066;2024-03-23T10:32:13;15.90;;;11.63;;
23474;SDS011;11910;52.086;21.066;2024-03-23T10:34:39;15.57;;;10.30;;
23474;SDS011;11910;52.086;21.066;2024-03-23T10:37:05;14.43;;;9.40;;
23474;SDS011;11910;52.086;21.066;2024-03-23T10:39:34;16.27;;;12.25;;
23474;SDS011;11910;52.086;21.066;2024-03-23T10:42:09;13.07;;;10.18;;
23474;SDS011;11910;52.086;21.066;2024-03-23T10:44:39;14.35;;;10.43;;
23474;SDS011;11910;52.086;21.066;2024-03-23T10:47:05;12.60;;;10.00;;
23474;SDS011;11910;52.086;21.066;2024-03-23T10:49:33;13.57;;;10.20;;
23474;SDS011;11910;52.086;21.066;2024-03-23T10:51:59;12.15;;;9.00;;
23474;SDS011;11910;52.086;21.066;2024-03-23T10:54:26;13.40;;;9.75;;
23474;SDS011;11910;52.086;21.066;2024-03-23T10:57:03;11.02;;;9.23;;
23474;SDS011;11910;52.086;21.066;2024-03-23T10:59:38;12.13;;;8.88;;
23474;SDS011;11910;52.086;21.066;2024-03-23T11:02:05;12.02;;;9.10;;
23474;SDS011;11910;52.086;21.066;2024-03-23T11:04:36;12.85;;;8.20;;
23474;SDS011;11910;52.086;21.066;2024-03-23T11:10:01;10.57;;;9.02;;
23474;SDS011;11910;52.086;21.066;2024-03-23T11:12:47;13.77;;;9.35;;
23474;SDS011;11910;52.086;21.066;2024-03-23T11:15:13;10.13;;;7.18;;
23474;SDS011;11910;52.086;21.066;2024-03-23T11:17:39;12.73;;;8.23;;
23474;SDS011;11910;52.086;21.066;2024-03-23T11:20:05;13.30;;;8.18;;
23474;SDS011;11910;52.086;21.066;2024-03-23T11:27:42;9.90;;;7.40;;
23474;SDS011;11910;52.086;21.066;2024-03-23T11:30:13;10.02;;;7.57;;
23474;SDS011;11910;52.086;21.066;2024-03-23T11:32:40;9.85;;;7.30;;
23474;SDS011;11910;52.086;21.066;2024-03-23T11:35:10;8.85;;;6.53;;
23474;SDS011;11910;52.086;21.066;2024-03-23T11:38:00;9.88;;;7.10;;
23474;SDS011;11910;52.086;21.066;2024-03-23T11:40:33;10.15;;;7.13;;
23474;SDS011;11910;52.086;21.066;2024-03-23T11:43:01;10.90;;;7.15;;
23474;SDS011;11910;52.086;21.066;2024-03-23T11:45:28;10.05;;;7.32;;
23474;SDS011;11910;52.086;21.066;2024-03-23T11:48:04;9.77;;;7.03;;
23474;SDS011;11910;52.086;21.066;2024-03-23T11:50:33;11.10;;;7.05;;
23474;SDS011;11910;52.086;21.066;2024-03-23T11:53:32;8.35;;;6.90;;
23474;SDS011;11910;52.086;21.066;2024-03-23T11:55:58;10.80;;;8.05;;
23474;SDS011;11910;52.086;21.066;2024-03-23T11:58:26;8.88;;;6.90;;
23474;SDS011;11910;52.086;21.066;2024-03-23T12:03:18;10.45;;;8.57;;
23474;SDS011;11910;52.086;21.066;2024-03-23T12:05:51;11.30;;;7.82;;
23474;SDS011;11910;52.086;21.066;2024-03-23T12:08:22;11.38;;;7.45;;
23474;SDS011;11910;52.086;21.066;2024-03-23T12:10:52;9.77;;;7.70;;
23474;SDS011;11910;52.086;21.066;2024-03-23T12:13:30;11.48;;;8.43;;
23474;SDS011;11910;52.086;21.066;2024-03-23T12:16:08;8.90;;;7.40;;
23474;SDS011;11910;52.086;21.066;2024-03-23T12:18:36;10.70;;;7.30;;
23474;SDS011;11910;52.086;21.066;2024-03-23T12:21:03;8.70;;;7.15;;
23474;SDS011;11910;52.086;21.066;2024-03-23T12:23:31;10.65;;;7.15;;
23474;SDS011;11910;52.086;21.066;2024-03-23T12:25:57;12.45;;;8.95;;
23474;SDS011;11910;52.086;21.066;2024-03-23T12:28:23;9.57;;;7.78;;
23474;SDS011;11910;52.086;21.066;2024-03-23T12:30:49;11.45;;;8.40;;
23474;SDS011;11910;52.086;21.066;2024-03-23T12:33:15;10.95;;;8.15;;
23474;SDS011;11910;52.086;21.066;2024-03-23T12:35:40;10.45;;;8.20;;
23474;SDS011;11910;52.086;21.066;2024-03-23T12:38:06;14.05;;;8.20;;
23474;SDS011;11910;52.086;21.066;2024-03-23T12:40:32;10.95;;;7.90;;
23474;SDS011;11910;52.086;21.066;2024-03-23T12:42:58;10.43;;;7.63;;
23474;SDS011;11910;52.086;21.066;2024-03-23T12:45:24;9.68;;;7.85;;
23474;SDS011;11910;52.086;21.066;2024-03-23T12:47:49;10.50;;;6.82;;
23474;SDS011;11910;52.086;21.066;2024-03-23T12:50:18;9.82;;;6.32;;
23474;SDS011;11910;52.086;21.066;2024-03-23T12:52:45;12.02;;;6.65;;
23474;SDS011;11910;52.086;21.066;2024-03-23T12:55:10;8.65;;;6.18;;
23474;SDS011;11910;52.086;21.066;2024-03-23T12:57:37;7.88;;;6.32;;
23474;SDS011;11910;52.086;21.066;2024-03-23T13:00:02;10.27;;;6.93;;
23474;SDS011;11910;52.086;21.066;2024-03-23T13:02:29;9.43;;;6.75;;
23474;SDS011;11910;52.086;21.066;2024-03-23T13:04:55;8.95;;;5.88;;
23474;SDS011;11910;52.086;21.066;2024-03-23T13:07:24;11.65;;;6.47;;
23474;SDS011;11910;52.086;21.066;2024-03-23T13:09:50;7.65;;;6.25;;
23474;SDS011;11910;52.086;21.066;2024-03-23T13:12:16;9.02;;;6.03;;
23474;SDS011;11910;52.086;21.066;2024-03-23T13:14:43;9.70;;;6.05;;
23474;SDS011;11910;52.086;21.066;2024-03-23T13:17:10;9.50;;;6.07;;
23474;SDS011;11910;52.086;21.066;2024-03-23T13:19:36;7.47;;;5.85;;
23474;SDS011;11910;52.086;21.066;2024-03-23T13:22:02;8.77;;;5.55;;
23474;SDS011;11910;52.086;21.066;2024-03-23T13:24:29;6.18;;;5.32;;
23474;SDS011;11910;52.086;21.066;2024-03-23T13:26:55;7.82;;;5.40;;
23474;SDS011;11910;52.086;21.066;2024-03-23T13:29:22;9.63;;;6.03;;
23474;SDS011;11910;52.086;21.066;2024-03-23T13:31:49;10.10;;;5.60;;
23474;SDS011;11910;52.086;21.066;2024-03-23T13:34:15;8.90;;;4.97;;
23474;SDS011;11910;52.086;21.066;2024-03-23T13:36:44;9.10;;;5.40;;
23474;SDS011;11910;52.086;21.066;2024-03-23T13:39:11;8.25;;;5.38;;
23474;SDS011;11910;52.086;21.066;2024-03-23T13:41:38;11.07;;;5.97;;
23474;SDS011;11910;52.086;21.066;2024-03-23T13:44:11;8.25;;;5.50;;
23474;SDS011;11910;52.086;21.066;2024-03-23T13:46:41;9.50;;;5.63;;
23474;SDS011;11910;52.086;21.066;2024-03-23T13:49:18;11.00;;;5.63;;
23474;SDS011;11910;52.086;21.066;2024-03-23T13:51:59;8.90;;;5.68;;
23474;SDS011;11910;52.086;21.066;2024-03-23T13:54:25;14.18;;;5.75;;
23474;SDS011;11910;52.086;21.066;2024-03-23T13:56:52;8.85;;;5.65;;
23474;SDS011;11910;52.086;21.066;2024-03-23T13:59:19;7.97;;;5.90;;
23474;SDS011;11910;52.086;21.066;2024-03-23T14:01:46;7.28;;;5.72;;
23474;SDS011;11910;52.086;21.066;2024-03-23T14:04:12;7.68;;;5.65;;
23474;SDS011;11910;52.086;21.066;2024-03-23T14:06:38;8.48;;;6.45;;
23474;SDS011;11910;52.086;21.066;2024-03-23T14:09:11;10.35;;;7.13;;
23474;SDS011;11910;52.086;21.066;2024-03-23T14:11:40;10.73;;;7.03;;
23474;SDS011;11910;52.086;21.066;2024-03-23T14:14:09;17.15;;;11.50;;
23474;SDS011;11910;52.086;21.066;2024-03-23T14:17:00;11.18;;;9.55;;
23474;SDS011;11910;52.086;21.066;2024-03-23T14:19:26;10.73;;;8.02;;
23474;SDS011;11910;52.086;21.066;2024-03-23T14:21:52;11.23;;;6.75;;
23474;SDS011;11910;52.086;21.066;2024-03-23T14:24:18;12.30;;;9.63;;
23474;SDS011;11910;52.086;21.066;2024-03-23T14:26:44;14.73;;;9.98;;
23474;SDS011;11910;52.086;21.066;2024-03-23T14:29:09;10.95;;;7.97;;
23474;SDS011;11910;52.086;21.066;2024-03-23T14:31:35;10.32;;;7.43;;
23474;SDS011;11910;52.086;21.066;2024-03-23T14:34:01;11.25;;;7.60;;
23474;SDS011;11910;52.086;21.066;2024-03-23T14:36:27;12.57;;;8.45;;
23474;SDS011;11910;52.086;21.066;2024-03-23T14:38:52;10.52;;;8.63;;
23474;SDS011;11910;52.086;21.066;2024-03-23T14:41:21;14.18;;;9.65;;
23474;SDS011;11910;52.086;21.066;2024-03-23T14:43:49;13.07;;;9.07;;
23474;SDS011;11910;52.086;21.066;2024-03-23T14:46:18;13.30;;;9.52;;
23474;SDS011;11910;52.086;21.066;2024-03-23T14:48:44;12.93;;;9.63;;
23474;SDS011;11910;52.086;21.066;2024-03-23T14:51:11;16.58;;;10.80;;
23474;SDS011;11910;52.086;21.066;2024-03-23T14:53:38;15.05;;;10.07;;
23474;SDS011;11910;52.086;21.066;2024-03-23T14:56:10;13.48;;;9.73;;
23474;SDS011;11910;52.086;21.066;2024-03-23T14:58:38;14.00;;;10.52;;
23474;SDS011;11910;52.086;21.066;2024-03-23T15:01:04;15.98;;;11.20;;
23474;SDS011;11910;52.086;21.066;2024-03-23T15:03:34;14.45;;;10.63;;
23474;SDS011;11910;52.086;21.066;2024-03-23T15:06:08;44.85;;;33.88;;
23474;SDS011;11910;52.086;21.066;2024-03-23T15:08:36;19.50;;;12.82;;
23474;SDS011;11910;52.086;21.066;2024-03-23T15:11:03;20.75;;;14.63;;
23474;SDS011;11910;52.086;21.066;2024-03-23T15:13:39;22.13;;;15.25;;
23474;SDS011;11910;52.086;21.066;2024-03-23T15:16:05;23.58;;;17.02;;
23474;SDS011;11910;52.086;21.066;2024-03-23T15:18:34;19.08;;;13.88;;
23474;SDS011;11910;52.086;21.066;2024-03-23T15:21:01;17.05;;;13.07;;
23474;SDS011;11910;52.086;21.066;2024-03-23T15:23:28;16.00;;;12.68;;
23474;SDS011;11910;52.086;21.066;2024-03-23T15:25:55;15.88;;;12.80;;